sensor_id;sensor_type;location;lat;lon;timestamp;P1;durP1;ratioP1;P2;durP2;ratioP2
4027;SDS011;2028;51.346;12.396;2022-12-18T00:01:38;70.20;;;57.90;;
4027;SDS011;2028;51.346;12.396;2022-12-18T00:04:06;66.78;;;56.28;;
4027;SDS011;2028;51.346;12.396;2022-12-18T00:06:33;74.65;;;63.85;;
4027;SDS011;2028;51.346;12.396;2022-12-18T00:09:00;75.78;;;60.80;;
4027;SDS011;2028;51.346;12.396;2022-12-18T00:11:28;72.22;;;60.20;;
4027;SDS011;2028;51.346;12.396;2022-12-18T00:13:56;68.60;;;59.97;;
4027;SDS011;2028;51.346;12.396;2022-12-18T00:16:23;68.75;;;58.97;;
4027;SDS011;2028;51.346;12.396;2022-12-18T00:18:52;63.95;;;56.92;;
4027;SDS011;2028;51.346;12.396;2022-12-18T00:21:19;62.83;;;55.80;;
4027;SDS011;2028;51.346;12.396;2022-12-18T00:23:46;67.75;;;54.70;;
4027;SDS011;2028;51.346;12.396;2022-12-18T00:26:14;65.28;;;56.95;;
4027;SDS011;2028;51.346;12.396;2022-12-18T00:28:41;63.45;;;54.45;;
4027;SDS011;2028;51.346;12.396;2022-12-18T00:31:08;67.90;;;55.63;;
4027;SDS011;2028;51.346;12.396;2022-12-18T00:33:35;66.20;;;56.03;;
4027;SDS011;2028;51.346;12.396;2022-12-18T00:36:02;65.45;;;57.42;;
4027;SDS011;2028;51.346;12.396;2022-12-18T00:38:29;69.70;;;59.20;;
4027;SDS011;2028;51.346;12.396;2022-12-18T00:40:55;65.93;;;56.28;;
4027;SDS011;2028;51.346;12.396;2022-12-18T00:43:22;61.83;;;52.83;;
4027;SDS011;2028;51.346;12.396;2022-12-18T00:45:48;62.17;;;52.33;;
4027;SDS011;2028;51.346;12.396;2022-12-18T00:50:50;62.20;;;53.42;;
4027;SDS011;2028;51.346;12.396;2022-12-18T00:53:16;62.63;;;53.90;;
4027;SDS011;2028;51.346;12.396;2022-12-18T00:55:43;61.58;;;52.63;;
4027;SDS011;2028;51.346;12.396;2022-12-18T00:58:10;62.75;;;52.60;;
4027;SDS011;2028;51.346;12.396;2022-12-18T01:00:38;61.05;;;53.00;;
4027;SDS011;2028;51.346;12.396;2022-12-18T01:03:04;64.97;;;53.60;;
4027;SDS011;2028;51.346;12.396;2022-12-18T01:05:31;60.88;;;52.42;;
4027;SDS011;2028;51.346;12.396;2022-12-18T01:07:57;64.47;;;52.45;;
4027;SDS011;2028;51.346;12.396;2022-12-18T01:10:24;61.38;;;53.35;;
4027;SDS011;2028;51.346;12.396;2022-12-18T01:12:51;58.65;;;52.10;;
4027;SDS011;2028;51.346;12.396;2022-12-18T01:15:18;58.55;;;49.17;;
4027;SDS011;2028;51.346;12.396;2022-12-18T01:17:44;60.33;;;50.13;;
4027;SDS011;2028;51.346;12.396;2022-12-18T01:20:10;63.63;;;51.05;;
4027;SDS011;2028;51.346;12.396;2022-12-18T01:22:37;61.88;;;51.60;;
4027;SDS011;2028;51.346;12.396;2022-12-18T01:25:04;60.15;;;50.53;;
4027;SDS011;2028;51.346;12.396;2022-12-18T01:27:31;60.20;;;49.90;;
4027;SDS011;2028;51.346;12.396;2022-12-18T01:29:57;62.15;;;51.97;;
4027;SDS011;2028;51.346;12.396;2022-12-18T01:32:23;59.95;;;52.40;;
4027;SDS011;2028;51.346;12.396;2022-12-18T01:34:50;67.43;;;52.55;;
4027;SDS011;2028;51.346;12.396;2022-12-18T01:37:16;64.10;;;51.10;;
4027;SDS011;2028;51.346;12.396;2022-12-18T01:39:42;62.30;;;49.97;;
4027;SDS011;2028;51.346;12.396;2022-12-18T01:42:11;61.67;;;50.30;;
4027;SDS011;2028;51.346;12.396;2022-12-18T01:47:56;62.22;;;51.15;;
4027;SDS011;2028;51.346;12.396;2022-12-18T01:50:09;59.72;;;49.13;;
4027;SDS011;2028;51.346;12.396;2022-12-18T01:52:36;59.00;;;48.13;;
4027;SDS011;2028;51.346;12.396;2022-12-18T01:55:03;58.45;;;48.83;;
4027;SDS011;2028;51.346;12.396;2022-12-18T01:57:30;62.22;;;51.22;;
4027;SDS011;2028;51.346;12.396;2022-12-18T01:59:59;59.88;;;50.33;;
4027;SDS011;2028;51.346;12.396;2022-12-18T02:02:27;59.42;;;49.88;;
4027;SDS011;2028;51.346;12.396;2022-12-18T02:04:54;62.97;;;49.88;;
4027;SDS011;2028;51.346;12.396;2022-12-18T02:10:30;55.78;;;46.63;;
4027;SDS011;2028;51.346;12.396;2022-12-18T02:13:03;56.40;;;47.50;;
4027;SDS011;2028;51.346;12.396;2022-12-18T02:15:51;58.80;;;46.60;;
4027;SDS011;2028;51.346;12.396;2022-12-18T02:18:21;57.83;;;47.55;;
4027;SDS011;2028;51.346;12.396;2022-12-18T02:20:52;53.60;;;46.00;;
4027;SDS011;2028;51.346;12.396;2022-12-18T02:28:26;60.20;;;49.60;;
4027;SDS011;2028;51.346;12.396;2022-12-18T02:30:54;55.17;;;47.05;;
4027;SDS011;2028;51.346;12.396;2022-12-18T02:33:22;53.30;;;44.95;;
4027;SDS011;2028;51.346;12.396;2022-12-18T02:35:49;52.53;;;46.65;;
4027;SDS011;2028;51.346;12.396;2022-12-18T02:38:16;58.17;;;45.45;;
4027;SDS011;2028;51.346;12.396;2022-12-18T02:40:43;54.15;;;47.25;;
4027;SDS011;2028;51.346;12.396;2022-12-18T02:43:11;53.15;;;46.22;;
4027;SDS011;2028;51.346;12.396;2022-12-18T02:45:54;56.97;;;45.97;;
4027;SDS011;2028;51.346;12.396;2022-12-18T02:48:26;50.20;;;43.28;;
4027;SDS011;2028;51.346;12.396;2022-12-18T02:50:57;54.75;;;44.55;;
4027;SDS011;2028;51.346;12.396;2022-12-18T11:38:04;50.20;;;40.70;;
4027;SDS011;2028;51.346;12.396;2022-12-18T11:40:36;23.88;;;21.48;;
4027;SDS011;2028;51.346;12.396;2022-12-18T12:45:36;16.00;;;14.50;;
4027;SDS011;2028;51.346;12.396;2022-12-18T12:47:52;16.58;;;14.95;;
4027;SDS011;2028;51.346;12.396;2022-12-18T12:51:01;17.80;;;16.00;;
4027;SDS011;2028;51.346;12.396;2022-12-18T12:53:45;19.13;;;17.15;;
4027;SDS011;2028;51.346;12.396;2022-12-18T12:56:13;16.35;;;14.65;;
4027;SDS011;2028;51.346;12.396;2022-12-18T13:01:12;16.70;;;15.10;;
4027;SDS011;2028;51.346;12.396;2022-12-18T13:08:56;17.88;;;15.98;;
4027;SDS011;2028;51.346;12.396;2022-12-18T13:11:34;17.52;;;15.73;;
4027;SDS011;2028;51.346;12.396;2022-12-18T13:14:20;18.33;;;16.63;;
4027;SDS011;2028;51.346;12.396;2022-12-18T13:16:48;20.08;;;16.98;;
4027;SDS011;2028;51.346;12.396;2022-12-18T13:19:22;19.83;;;17.83;;
4027;SDS011;2028;51.346;12.396;2022-12-18T13:21:54;19.60;;;17.60;;
4027;SDS011;2028;51.346;12.396;2022-12-18T13:26:55;19.52;;;17.55;;
4027;SDS011;2028;51.346;12.396;2022-12-18T13:29:41;19.70;;;17.60;;
4027;SDS011;2028;51.346;12.396;2022-12-18T13:32:22;19.25;;;17.33;;
4027;SDS011;2028;51.346;12.396;2022-12-18T13:34:48;18.88;;;16.92;;
4027;SDS011;2028;51.346;12.396;2022-12-18T13:45:59;20.55;;;18.20;;
4027;SDS011;2028;51.346;12.396;2022-12-18T13:48:26;22.13;;;19.83;;
4027;SDS011;2028;51.346;12.396;2022-12-18T13:51:11;23.30;;;20.80;;
4027;SDS011;2028;51.346;12.396;2022-12-18T13:53:44;21.63;;;19.33;;
4027;SDS011;2028;51.346;12.396;2022-12-18T13:56:20;22.75;;;20.35;;
4027;SDS011;2028;51.346;12.396;2022-12-18T13:59:03;22.80;;;20.45;;
4027;SDS011;2028;51.346;12.396;2022-12-18T14:01:31;22.13;;;19.75;;
4027;SDS011;2028;51.346;12.396;2022-12-18T14:04:08;21.38;;;19.05;;
4027;SDS011;2028;51.346;12.396;2022-12-18T14:06:35;21.85;;;19.23;;
4027;SDS011;2028;51.346;12.396;2022-12-18T14:09:02;23.58;;;21.23;;
4027;SDS011;2028;51.346;12.396;2022-12-18T14:11:28;24.63;;;22.02;;
4027;SDS011;2028;51.346;12.396;2022-12-18T14:13:55;25.15;;;21.63;;
4027;SDS011;2028;51.346;12.396;2022-12-18T18:58:40;38.78;;;33.88;;
4027;SDS011;2028;51.346;12.396;2022-12-18T19:01:17;31.52;;;27.45;;
4027;SDS011;2028;51.346;12.396;2022-12-18T19:21:06;28.10;;;24.50;;
4027;SDS011;2028;51.346;12.396;2022-12-18T19:24:11;27.95;;;23.85;;
4027;SDS011;2028;51.346;12.396;2022-12-18T20:16:14;30.02;;;25.48;;
4027;SDS011;2028;51.346;12.396;2022-12-18T20:34:12;28.52;;;22.50;;
4027;SDS011;2028;51.346;12.396;2022-12-18T20:40:49;24.80;;;22.05;;
4027;SDS011;2028;51.346;12.396;2022-12-18T20:48:00;28.30;;;23.02;;
4027;SDS011;2028;51.346;12.396;2022-12-18T20:54:47;24.88;;;20.90;;
4027;SDS011;2028;51.346;12.396;2022-12-18T21:28:13;21.60;;;19.35;;
4027;SDS011;2028;51.346;12.396;2022-12-18T21:31:29;22.25;;;19.92;;
4027;SDS011;2028;51.346;12.396;2022-12-18T22:00:26;25.05;;;22.42;;
4027;SDS011;2028;51.346;12.396;2022-12-18T22:02:52;28.77;;;22.55;;
4027;SDS011;2028;51.346;12.396;2022-12-18T22:05:19;27.13;;;22.38;;
4027;SDS011;2028;51.346;12.396;2022-12-18T22:07:45;27.57;;;21.17;;
4027;SDS011;2028;51.346;12.396;2022-12-18T22:10:11;27.05;;;22.02;;
4027;SDS011;2028;51.346;12.396;2022-12-18T22:12:37;25.35;;;20.98;;
4027;SDS011;2028;51.346;12.396;2022-12-18T22:15:04;28.30;;;21.93;;
4027;SDS011;2028;51.346;12.396;2022-12-18T22:17:31;25.00;;;18.75;;
4027;SDS011;2028;51.346;12.396;2022-12-18T22:19:57;25.42;;;20.25;;
4027;SDS011;2028;51.346;12.396;2022-12-18T22:22:23;23.08;;;18.70;;
4027;SDS011;2028;51.346;12.396;2022-12-18T22:24:50;22.92;;;19.10;;
4027;SDS011;2028;51.346;12.396;2022-12-18T22:27:16;22.90;;;18.13;;
4027;SDS011;2028;51.346;12.396;2022-12-18T22:29:43;22.73;;;18.45;;
4027;SDS011;2028;51.346;12.396;2022-12-18T22:32:28;21.73;;;18.70;;
4027;SDS011;2028;51.346;12.396;2022-12-18T22:34:54;22.10;;;18.00;;
4027;SDS011;2028;51.346;12.396;2022-12-18T22:37:20;23.15;;;19.33;;
4027;SDS011;2028;51.346;12.396;2022-12-18T22:39:47;24.63;;;18.38;;
4027;SDS011;2028;51.346;12.396;2022-12-18T22:42:13;22.05;;;18.33;;
4027;SDS011;2028;51.346;12.396;2022-12-18T22:44:39;23.25;;;20.48;;
4027;SDS011;2028;51.346;12.396;2022-12-18T22:47:06;21.50;;;18.13;;
4027;SDS011;2028;51.346;12.396;2022-12-18T22:49:32;22.77;;;18.85;;
4027;SDS011;2028;51.346;12.396;2022-12-18T22:51:59;23.90;;;19.95;;
4027;SDS011;2028;51.346;12.396;2022-12-18T22:54:25;26.92;;;20.73;;
4027;SDS011;2028;51.346;12.396;2022-12-18T22:56:51;24.10;;;19.60;;
4027;SDS011;2028;51.346;12.396;2022-12-18T22:59:18;24.20;;;19.98;;
4027;SDS011;2028;51.346;12.396;2022-12-18T23:01:46;24.80;;;20.08;;
4027;SDS011;2028;51.346;12.396;2022-12-18T23:04:13;24.05;;;21.20;;
4027;SDS011;2028;51.346;12.396;2022-12-18T23:06:40;24.60;;;21.08;;
4027;SDS011;2028;51.346;12.396;2022-12-18T23:09:08;24.08;;;19.88;;
4027;SDS011;2028;51.346;12.396;2022-12-18T23:11:38;23.05;;;19.08;;
4027;SDS011;2028;51.346;12.396;2022-12-18T23:14:05;24.10;;;20.27;;
4027;SDS011;2028;51.346;12.396;2022-12-18T23:16:31;24.10;;;19.95;;
4027;SDS011;2028;51.346;12.396;2022-12-18T23:18:59;23.77;;;20.95;;
4027;SDS011;2028;51.346;12.396;2022-12-18T23:21:26;24.48;;;20.17;;
4027;SDS011;2028;51.346;12.396;2022-12-18T23:23:52;24.63;;;19.98;;
4027;SDS011;2028;51.346;12.396;2022-12-18T23:26:19;24.98;;;20.20;;
4027;SDS011;2028;51.346;12.396;2022-12-18T23:28:48;24.75;;;19.05;;
4027;SDS011;2028;51.346;12.396;2022-12-18T23:31:16;24.52;;;20.02;;
4027;SDS011;2028;51.346;12.396;2022-12-18T23:33:43;25.38;;;20.35;;
4027;SDS011;2028;51.346;12.396;2022-12-18T23:36:10;23.45;;;19.42;;
4027;SDS011;2028;51.346;12.396;2022-12-18T23:38:37;23.73;;;19.38;;
4027;SDS011;2028;51.346;12.396;2022-12-18T23:41:07;23.50;;;20.00;;
4027;SDS011;2028;51.346;12.396;2022-12-18T23:43:35;24.67;;;20.08;;
4027;SDS011;2028;51.346;12.396;2022-12-18T23:46:02;27.38;;;21.85;;
4027;SDS011;2028;51.346;12.396;2022-12-18T23:48:28;29.05;;;22.08;;
4027;SDS011;2028;51.346;12.396;2022-12-18T23:50:54;27.25;;;21.08;;
4027;SDS011;2028;51.346;12.396;2022-12-18T23:55:55;27.02;;;21.35;;
4027;SDS011;2028;51.346;12.396;2022-12-18T23:58:21;28.02;;;22.33;;
